Terminal Aerodrome Forecast
Issued by NWS

Home | Current Version | Previous Version | Text Only | Print | Product List | Glossary On
Versions: 1 2 3 4 5 6 7 8 9 10 11 12 13 14 15 16 17 18 19 20 21 22 23 24 25
000
FTUS46 KLOX 201700
TAFOXR
TAF
KOXR 201724Z 2018/2118 25006KT P6SM SKC
     FM202000 26010KT P6SM SKC
     FM210300 VRB03KT P6SM SKC
     FM211100 VRB03KT 2SM BR OVC004
     FM211600 VRB03KT 4SM BR BKN005=

USA.gov is the U.S. government's official web portal to all federal, state and local government web resources and services.